sensor_id;sensor_type;location;lat;lon;timestamp;temperature;humidity
1075;DHT22;526;51.392;12.448;2023-07-13T04:03:13;18.80;93.00
1075;DHT22;526;51.392;12.448;2023-07-13T04:05:39;18.80;93.30
1075;DHT22;526;51.392;12.448;2023-07-13T04:08:06;18.80;93.20
1075;DHT22;526;51.392;12.448;2023-07-13T04:10:35;18.80;93.50
1075;DHT22;526;51.392;12.448;2023-07-13T04:13:06;18.80;93.60
1075;DHT22;526;51.392;12.448;2023-07-13T04:15:35;18.80;93.80
1075;DHT22;526;51.392;12.448;2023-07-13T04:18:00;18.80;94.20
1075;DHT22;526;51.392;12.448;2023-07-13T04:20:28;18.80;94.00
1075;DHT22;526;51.392;12.448;2023-07-13T04:22:57;18.80;93.80
1075;DHT22;526;51.392;12.448;2023-07-13T04:25:22;18.80;93.90
1075;DHT22;526;51.392;12.448;2023-07-13T04:27:48;18.80;93.80
1075;DHT22;526;51.392;12.448;2023-07-13T04:30:14;18.80;93.70
1075;DHT22;526;51.392;12.448;2023-07-13T04:32:42;18.80;94.10
1075;DHT22;526;51.392;12.448;2023-07-13T04:35:08;18.90;94.30
1075;DHT22;526;51.392;12.448;2023-07-13T04:37:33;18.80;94.50
1075;DHT22;526;51.392;12.448;2023-07-13T04:40:00;18.80;94.70
1075;DHT22;526;51.392;12.448;2023-07-13T04:42:28;18.80;95.00
1075;DHT22;526;51.392;12.448;2023-07-13T04:44:56;18.80;95.30
1075;DHT22;526;51.392;12.448;2023-07-13T04:47:22;18.80;95.30
1075;DHT22;526;51.392;12.448;2023-07-13T04:49:47;18.80;95.50
1075;DHT22;526;51.392;12.448;2023-07-13T04:52:15;18.80;95.70
1075;DHT22;526;51.392;12.448;2023-07-13T04:54:41;18.80;95.40
1075;DHT22;526;51.392;12.448;2023-07-13T04:57:07;18.80;95.10
1075;DHT22;526;51.392;12.448;2023-07-13T04:59:33;18.90;94.70
1075;DHT22;526;51.392;12.448;2023-07-13T05:01:59;18.90;94.70
1075;DHT22;526;51.392;12.448;2023-07-13T05:04:25;19.00;94.60
1075;DHT22;526;51.392;12.448;2023-07-13T05:06:50;19.10;94.60
1075;DHT22;526;51.392;12.448;2023-07-13T05:09:22;19.10;94.50
1075;DHT22;526;51.392;12.448;2023-07-13T05:11:47;19.20;94.40
1075;DHT22;526;51.392;12.448;2023-07-13T05:14:13;19.20;95.30
1075;DHT22;526;51.392;12.448;2023-07-13T05:16:43;19.30;95.50
1075;DHT22;526;51.392;12.448;2023-07-13T05:19:14;19.30;95.30
1075;DHT22;526;51.392;12.448;2023-07-13T05:21:45;19.40;95.50
1075;DHT22;526;51.392;12.448;2023-07-13T05:24:18;19.40;96.00
1075;DHT22;526;51.392;12.448;2023-07-13T05:26:47;19.40;96.20
1075;DHT22;526;51.392;12.448;2023-07-13T05:29:12;19.40;96.30
1075;DHT22;526;51.392;12.448;2023-07-13T05:31:48;19.40;96.50
1075;DHT22;526;51.392;12.448;2023-07-13T05:34:17;19.50;96.40
1075;DHT22;526;51.392;12.448;2023-07-13T05:36:42;19.50;96.30
1075;DHT22;526;51.392;12.448;2023-07-13T05:39:13;19.60;96.30
1075;DHT22;526;51.392;12.448;2023-07-13T05:41:41;19.60;96.30
1075;DHT22;526;51.392;12.448;2023-07-13T05:44:06;19.60;96.20
1075;DHT22;526;51.392;12.448;2023-07-13T05:46:32;19.70;96.00
1075;DHT22;526;51.392;12.448;2023-07-13T05:48:58;19.80;96.00
1075;DHT22;526;51.392;12.448;2023-07-13T05:51:27;19.80;95.90
1075;DHT22;526;51.392;12.448;2023-07-13T05:53:52;19.90;95.70
1075;DHT22;526;51.392;12.448;2023-07-13T05:56:21;19.90;95.50
1075;DHT22;526;51.392;12.448;2023-07-13T05:58:55;20.00;95.20
1075;DHT22;526;51.392;12.448;2023-07-13T06:01:21;20.10;95.10
1075;DHT22;526;51.392;12.448;2023-07-13T06:03:48;20.10;95.00
1075;DHT22;526;51.392;12.448;2023-07-13T06:06:15;20.20;94.90
1075;DHT22;526;51.392;12.448;2023-07-13T06:08:49;20.20;94.60
1075;DHT22;526;51.392;12.448;2023-07-13T06:11:19;20.30;93.90
1075;DHT22;526;51.392;12.448;2023-07-13T06:13:55;20.40;93.30
1075;DHT22;526;51.392;12.448;2023-07-13T06:16:28;20.50;92.20
1075;DHT22;526;51.392;12.448;2023-07-13T06:18:57;20.50;92.40
1075;DHT22;526;51.392;12.448;2023-07-13T06:21:25;20.60;91.50
1075;DHT22;526;51.392;12.448;2023-07-13T06:23:51;20.60;91.30
1075;DHT22;526;51.392;12.448;2023-07-13T06:26:27;20.60;91.30
1075;DHT22;526;51.392;12.448;2023-07-13T06:28:55;20.70;91.10
1075;DHT22;526;51.392;12.448;2023-07-13T06:31:25;20.70;91.20
1075;DHT22;526;51.392;12.448;2023-07-13T06:33:58;20.80;90.90
1075;DHT22;526;51.392;12.448;2023-07-13T06:36:24;20.80;90.80
1075;DHT22;526;51.392;12.448;2023-07-13T06:38:49;20.90;91.00
1075;DHT22;526;51.392;12.448;2023-07-13T06:41:15;20.90;90.40
1075;DHT22;526;51.392;12.448;2023-07-13T06:43:43;21.00;89.70
1075;DHT22;526;51.392;12.448;2023-07-13T06:46:09;21.00;89.00
1075;DHT22;526;51.392;12.448;2023-07-13T06:48:45;21.10;88.70
1075;DHT22;526;51.392;12.448;2023-07-13T06:51:13;21.20;88.00
1075;DHT22;526;51.392;12.448;2023-07-13T06:53:46;21.20;86.60
1075;DHT22;526;51.392;12.448;2023-07-13T06:56:19;21.30;85.60
1075;DHT22;526;51.392;12.448;2023-07-13T06:58:47;21.40;85.20
1075;DHT22;526;51.392;12.448;2023-07-13T07:01:15;21.50;83.30
1075;DHT22;526;51.392;12.448;2023-07-13T07:03:40;21.60;83.50
1075;DHT22;526;51.392;12.448;2023-07-13T07:06:20;21.70;83.90
1075;DHT22;526;51.392;12.448;2023-07-13T07:08:48;21.80;83.90
1075;DHT22;526;51.392;12.448;2023-07-13T07:11:17;21.90;84.30
1075;DHT22;526;51.392;12.448;2023-07-13T07:13:43;22.00;84.00
1075;DHT22;526;51.392;12.448;2023-07-13T07:16:08;22.10;83.80
1075;DHT22;526;51.392;12.448;2023-07-13T07:18:34;22.20;83.70
1075;DHT22;526;51.392;12.448;2023-07-13T07:21:00;22.20;83.40
1075;DHT22;526;51.392;12.448;2023-07-13T07:23:25;22.20;82.80
1075;DHT22;526;51.392;12.448;2023-07-13T07:25:51;22.30;83.20
1075;DHT22;526;51.392;12.448;2023-07-13T07:28:17;22.30;82.90
1075;DHT22;526;51.392;12.448;2023-07-13T07:30:47;22.30;82.40
1075;DHT22;526;51.392;12.448;2023-07-13T07:33:13;22.30;82.70
1075;DHT22;526;51.392;12.448;2023-07-13T07:35:38;22.30;82.00
1075;DHT22;526;51.392;12.448;2023-07-13T07:38:04;22.30;82.30
1075;DHT22;526;51.392;12.448;2023-07-13T07:40:30;22.30;82.40
1075;DHT22;526;51.392;12.448;2023-07-13T07:42:56;22.30;81.50
1075;DHT22;526;51.392;12.448;2023-07-13T07:45:22;22.40;81.00
1075;DHT22;526;51.392;12.448;2023-07-13T07:47:47;22.40;81.20
1075;DHT22;526;51.392;12.448;2023-07-13T07:50:13;22.50;80.60
1075;DHT22;526;51.392;12.448;2023-07-13T07:52:41;22.50;80.70
1075;DHT22;526;51.392;12.448;2023-07-13T07:55:09;22.50;81.40
1075;DHT22;526;51.392;12.448;2023-07-13T07:57:34;22.50;81.10
1075;DHT22;526;51.392;12.448;2023-07-13T08:00:05;22.60;81.50
1075;DHT22;526;51.392;12.448;2023-07-13T08:02:33;22.50;80.70
1075;DHT22;526;51.392;12.448;2023-07-13T08:05:25;22.50;80.40
1075;DHT22;526;51.392;12.448;2023-07-13T08:11:17;22.70;80.20
1075;DHT22;526;51.392;12.448;2023-07-13T08:13:46;22.80;81.30
1075;DHT22;526;51.392;12.448;2023-07-13T08:16:37;23.00;81.90
1075;DHT22;526;51.392;12.448;2023-07-13T08:19:05;23.10;81.30
1075;DHT22;526;51.392;12.448;2023-07-13T08:21:39;23.20;80.00
1075;DHT22;526;51.392;12.448;2023-07-13T08:24:07;23.30;80.40
1075;DHT22;526;51.392;12.448;2023-07-13T08:26:35;23.40;79.70
1075;DHT22;526;51.392;12.448;2023-07-13T08:29:02;23.50;79.70
1075;DHT22;526;51.392;12.448;2023-07-13T08:31:38;23.50;79.60
1075;DHT22;526;51.392;12.448;2023-07-13T08:34:06;23.60;79.80
1075;DHT22;526;51.392;12.448;2023-07-13T08:36:34;23.60;78.60
1075;DHT22;526;51.392;12.448;2023-07-13T08:39:06;23.70;78.00
1075;DHT22;526;51.392;12.448;2023-07-13T08:41:38;23.60;77.60
1075;DHT22;526;51.392;12.448;2023-07-13T08:44:13;23.60;77.40
1075;DHT22;526;51.392;12.448;2023-07-13T08:46:44;23.60;76.70
1075;DHT22;526;51.392;12.448;2023-07-13T08:49:15;23.60;76.80
1075;DHT22;526;51.392;12.448;2023-07-13T08:51:59;23.60;78.40
1075;DHT22;526;51.392;12.448;2023-07-13T08:54:46;23.70;77.80
1075;DHT22;526;51.392;12.448;2023-07-13T08:57:17;23.80;76.80
1075;DHT22;526;51.392;12.448;2023-07-13T08:59:44;23.90;76.80
1075;DHT22;526;51.392;12.448;2023-07-13T09:02:28;24.00;76.90
1075;DHT22;526;51.392;12.448;2023-07-13T09:05:14;24.00;77.20
1075;DHT22;526;51.392;12.448;2023-07-13T09:10:19;24.20;76.20
1075;DHT22;526;51.392;12.448;2023-07-13T09:15:42;24.40;75.80
1075;DHT22;526;51.392;12.448;2023-07-13T09:18:35;24.40;75.20
1075;DHT22;526;51.392;12.448;2023-07-13T09:21:17;24.50;75.00
1075;DHT22;526;51.392;12.448;2023-07-13T09:23:47;24.50;74.50
1075;DHT22;526;51.392;12.448;2023-07-13T09:26:21;24.60;75.60
1075;DHT22;526;51.392;12.448;2023-07-13T09:29:15;24.50;74.80
1075;DHT22;526;51.392;12.448;2023-07-13T09:31:42;24.50;74.80
1075;DHT22;526;51.392;12.448;2023-07-13T09:34:12;24.40;74.80
1075;DHT22;526;51.392;12.448;2023-07-13T09:36:38;24.40;75.00
1075;DHT22;526;51.392;12.448;2023-07-13T09:39:26;24.50;75.80
1075;DHT22;526;51.392;12.448;2023-07-13T09:42:25;24.70;75.10
1075;DHT22;526;51.392;12.448;2023-07-13T09:47:22;24.90;74.40
1075;DHT22;526;51.392;12.448;2023-07-13T09:49:57;25.10;74.50
1075;DHT22;526;51.392;12.448;2023-07-13T09:52:27;25.10;72.40
1075;DHT22;526;51.392;12.448;2023-07-13T09:54:56;25.10;73.30
1075;DHT22;526;51.392;12.448;2023-07-13T09:57:27;25.10;73.10
1075;DHT22;526;51.392;12.448;2023-07-13T09:59:55;25.10;73.20
1075;DHT22;526;51.392;12.448;2023-07-13T10:05:07;25.00;74.30
1075;DHT22;526;51.392;12.448;2023-07-13T10:07:42;25.10;73.80
1075;DHT22;526;51.392;12.448;2023-07-13T10:10:21;25.30;72.10
1075;DHT22;526;51.392;12.448;2023-07-13T10:12:58;25.40;72.40
1075;DHT22;526;51.392;12.448;2023-07-13T10:15:27;25.40;72.50
1075;DHT22;526;51.392;12.448;2023-07-13T10:17:56;25.40;73.10
1075;DHT22;526;51.392;12.448;2023-07-13T10:20:29;25.40;72.50
1075;DHT22;526;51.392;12.448;2023-07-13T10:23:01;25.40;72.20
1075;DHT22;526;51.392;12.448;2023-07-13T10:25:39;25.40;72.00
1075;DHT22;526;51.392;12.448;2023-07-13T10:28:35;25.40;72.50
1075;DHT22;526;51.392;12.448;2023-07-13T10:31:14;25.30;72.80
1075;DHT22;526;51.392;12.448;2023-07-13T10:33:48;25.30;72.20
1075;DHT22;526;51.392;12.448;2023-07-13T10:36:34;25.20;72.00
1075;DHT22;526;51.392;12.448;2023-07-13T10:39:09;25.10;72.40
1075;DHT22;526;51.392;12.448;2023-07-13T10:41:40;25.10;73.20
1075;DHT22;526;51.392;12.448;2023-07-13T10:44:24;25.10;73.40
1075;DHT22;526;51.392;12.448;2023-07-13T10:47:04;25.20;72.60
1075;DHT22;526;51.392;12.448;2023-07-13T10:49:39;25.40;72.80
1075;DHT22;526;51.392;12.448;2023-07-13T10:55:03;25.60;73.00
1075;DHT22;526;51.392;12.448;2023-07-13T10:57:28;25.70;72.70
1075;DHT22;526;51.392;12.448;2023-07-13T11:00:17;25.90;72.90
1075;DHT22;526;51.392;12.448;2023-07-13T11:02:43;26.00;71.80
1075;DHT22;526;51.392;12.448;2023-07-13T11:08:02;26.00;70.90
1075;DHT22;526;51.392;12.448;2023-07-13T11:10:50;25.90;70.10
1075;DHT22;526;51.392;12.448;2023-07-13T11:16:00;25.80;70.20
1075;DHT22;526;51.392;12.448;2023-07-13T11:18:25;25.80;70.50
1075;DHT22;526;51.392;12.448;2023-07-13T11:20:53;25.80;71.90
1075;DHT22;526;51.392;12.448;2023-07-13T11:23:42;26.00;71.30
1075;DHT22;526;51.392;12.448;2023-07-13T11:26:40;26.10;70.30
1075;DHT22;526;51.392;12.448;2023-07-13T11:29:37;26.30;72.10
1075;DHT22;526;51.392;12.448;2023-07-13T11:32:29;26.50;69.80
1075;DHT22;526;51.392;12.448;2023-07-13T11:34:55;26.50;69.50
1075;DHT22;526;51.392;12.448;2023-07-13T11:37:21;26.40;68.70
1075;DHT22;526;51.392;12.448;2023-07-13T11:39:50;26.20;69.40
1075;DHT22;526;51.392;12.448;2023-07-13T11:42:18;26.20;68.10
1075;DHT22;526;51.392;12.448;2023-07-13T11:44:48;26.30;66.50
1075;DHT22;526;51.392;12.448;2023-07-13T11:47:19;26.40;69.20
1075;DHT22;526;51.392;12.448;2023-07-13T11:49:52;26.60;68.20
1075;DHT22;526;51.392;12.448;2023-07-13T11:52:34;26.80;67.80
1075;DHT22;526;51.392;12.448;2023-07-13T11:55:03;26.90;67.90
1075;DHT22;526;51.392;12.448;2023-07-13T11:57:40;26.90;68.10
1075;DHT22;526;51.392;12.448;2023-07-13T12:00:15;26.70;68.40
1075;DHT22;526;51.392;12.448;2023-07-13T12:02:48;26.50;68.80
1075;DHT22;526;51.392;12.448;2023-07-13T12:05:17;26.30;68.50
1075;DHT22;526;51.392;12.448;2023-07-13T12:07:43;26.20;70.00
1075;DHT22;526;51.392;12.448;2023-07-13T12:12:40;26.00;68.00
1075;DHT22;526;51.392;12.448;2023-07-13T12:15:12;26.10;69.10
1075;DHT22;526;51.392;12.448;2023-07-13T12:17:38;26.20;68.40
1075;DHT22;526;51.392;12.448;2023-07-13T12:20:23;26.30;68.60
1075;DHT22;526;51.392;12.448;2023-07-13T12:22:50;26.50;66.50
1075;DHT22;526;51.392;12.448;2023-07-13T12:25:17;26.70;66.30
1075;DHT22;526;51.392;12.448;2023-07-13T12:27:47;26.90;66.40
1075;DHT22;526;51.392;12.448;2023-07-13T12:30:29;27.00;67.50
1075;DHT22;526;51.392;12.448;2023-07-13T12:32:59;27.20;66.00
1075;DHT22;526;51.392;12.448;2023-07-13T12:35:28;27.30;66.10
1075;DHT22;526;51.392;12.448;2023-07-13T12:37:57;27.20;65.00
1075;DHT22;526;51.392;12.448;2023-07-13T12:40:28;27.00;64.60
1075;DHT22;526;51.392;12.448;2023-07-13T12:43:01;26.80;64.80
1075;DHT22;526;51.392;12.448;2023-07-13T12:45:36;26.60;65.60
1075;DHT22;526;51.392;12.448;2023-07-13T12:48:18;26.50;65.40
1075;DHT22;526;51.392;12.448;2023-07-13T12:50:47;26.50;66.00
1075;DHT22;526;51.392;12.448;2023-07-13T12:53:20;26.50;66.20
1075;DHT22;526;51.392;12.448;2023-07-13T12:55:47;26.60;65.80
1075;DHT22;526;51.392;12.448;2023-07-13T12:58:26;26.70;66.60
1075;DHT22;526;51.392;12.448;2023-07-13T13:01:05;27.00;66.40
1075;DHT22;526;51.392;12.448;2023-07-13T13:03:54;27.20;64.80
1075;DHT22;526;51.392;12.448;2023-07-13T13:06:27;27.40;65.30
1075;DHT22;526;51.392;12.448;2023-07-13T13:08:55;27.50;65.90
1075;DHT22;526;51.392;12.448;2023-07-13T13:11:23;27.70;65.60
1075;DHT22;526;51.392;12.448;2023-07-13T13:13:49;27.80;65.00
1075;DHT22;526;51.392;12.448;2023-07-13T13:16:30;27.90;64.50
1075;DHT22;526;51.392;12.448;2023-07-13T13:19:14;28.00;63.60
1075;DHT22;526;51.392;12.448;2023-07-13T13:21:41;28.00;63.70
1075;DHT22;526;51.392;12.448;2023-07-13T13:24:17;28.00;64.40
1075;DHT22;526;51.392;12.448;2023-07-13T13:26:43;28.00;62.80
1075;DHT22;526;51.392;12.448;2023-07-13T13:29:16;28.00;63.60
1075;DHT22;526;51.392;12.448;2023-07-13T13:31:43;28.10;65.10
1075;DHT22;526;51.392;12.448;2023-07-13T13:34:11;28.30;63.90
1075;DHT22;526;51.392;12.448;2023-07-13T13:36:37;28.40;62.60
1075;DHT22;526;51.392;12.448;2023-07-13T13:39:14;28.40;62.80
1075;DHT22;526;51.392;12.448;2023-07-13T13:41:42;28.40;62.80
1075;DHT22;526;51.392;12.448;2023-07-13T13:44:09;28.40;63.00
1075;DHT22;526;51.392;12.448;2023-07-13T13:46:35;28.30;64.50
1075;DHT22;526;51.392;12.448;2023-07-13T13:49:01;28.40;64.80
1075;DHT22;526;51.392;12.448;2023-07-13T13:51:28;28.30;64.30
1075;DHT22;526;51.392;12.448;2023-07-13T13:53:54;28.40;64.40
1075;DHT22;526;51.392;12.448;2023-07-13T13:56:20;28.40;64.20
1075;DHT22;526;51.392;12.448;2023-07-13T13:58:46;28.50;63.90
1075;DHT22;526;51.392;12.448;2023-07-13T14:01:16;28.50;64.40
1075;DHT22;526;51.392;12.448;2023-07-13T14:03:43;28.50;64.50
1075;DHT22;526;51.392;12.448;2023-07-13T14:06:15;28.60;64.50
1075;DHT22;526;51.392;12.448;2023-07-13T14:08:41;28.60;62.70
1075;DHT22;526;51.392;12.448;2023-07-13T14:11:11;28.70;64.00
1075;DHT22;526;51.392;12.448;2023-07-13T14:13:43;28.80;64.40
1075;DHT22;526;51.392;12.448;2023-07-13T14:16:17;28.80;63.90
1075;DHT22;526;51.392;12.448;2023-07-13T14:18:44;28.80;63.40
1075;DHT22;526;51.392;12.448;2023-07-13T14:21:18;28.70;64.00
1075;DHT22;526;51.392;12.448;2023-07-13T14:23:45;28.70;63.30
1075;DHT22;526;51.392;12.448;2023-07-13T14:26:14;28.70;63.40
1075;DHT22;526;51.392;12.448;2023-07-13T14:28:47;28.60;64.20
1075;DHT22;526;51.392;12.448;2023-07-13T14:31:14;28.70;63.30
1075;DHT22;526;51.392;12.448;2023-07-13T14:33:41;28.60;63.90
1075;DHT22;526;51.392;12.448;2023-07-13T14:38:46;28.50;63.20
1075;DHT22;526;51.392;12.448;2023-07-13T14:41:27;28.60;64.40
1075;DHT22;526;51.392;12.448;2023-07-13T14:43:53;28.80;64.70
1075;DHT22;526;51.392;12.448;2023-07-13T14:46:29;29.00;63.50
1075;DHT22;526;51.392;12.448;2023-07-13T14:49:03;29.10;63.20
1075;DHT22;526;51.392;12.448;2023-07-13T14:51:30;29.10;63.70
1075;DHT22;526;51.392;12.448;2023-07-13T14:53:56;29.20;63.00
1075;DHT22;526;51.392;12.448;2023-07-13T14:56:25;29.30;63.10
1075;DHT22;526;51.392;12.448;2023-07-13T14:58:50;29.40;62.30
1075;DHT22;526;51.392;12.448;2023-07-13T15:01:18;29.40;62.10
1075;DHT22;526;51.392;12.448;2023-07-13T15:03:47;29.30;62.20
1075;DHT22;526;51.392;12.448;2023-07-13T15:06:13;29.20;63.20
1075;DHT22;526;51.392;12.448;2023-07-13T15:08:39;29.30;63.30
1075;DHT22;526;51.392;12.448;2023-07-13T15:11:07;29.20;61.90
1075;DHT22;526;51.392;12.448;2023-07-13T15:13:32;29.00;61.40
1075;DHT22;526;51.392;12.448;2023-07-13T15:15:59;28.80;61.60
1075;DHT22;526;51.392;12.448;2023-07-13T15:18:25;28.50;62.00
1075;DHT22;526;51.392;12.448;2023-07-13T15:20:53;28.30;62.00
1075;DHT22;526;51.392;12.448;2023-07-13T15:23:22;28.10;62.20
1075;DHT22;526;51.392;12.448;2023-07-13T15:25:51;28.00;63.20
1075;DHT22;526;51.392;12.448;2023-07-13T15:28:17;27.90;62.80
1075;DHT22;526;51.392;12.448;2023-07-13T15:30:47;27.90;63.00
1075;DHT22;526;51.392;12.448;2023-07-13T15:33:27;28.00;62.90
1075;DHT22;526;51.392;12.448;2023-07-13T15:35:53;28.30;64.50
1075;DHT22;526;51.392;12.448;2023-07-13T15:38:25;28.50;63.20
1075;DHT22;526;51.392;12.448;2023-07-13T15:40:52;28.70;64.70
1075;DHT22;526;51.392;12.448;2023-07-13T15:43:18;28.90;64.40
1075;DHT22;526;51.392;12.448;2023-07-13T15:45:45;29.00;61.90
1075;DHT22;526;51.392;12.448;2023-07-13T15:48:13;28.90;62.50
1075;DHT22;526;51.392;12.448;2023-07-13T15:50:50;28.90;61.70
1075;DHT22;526;51.392;12.448;2023-07-13T15:53:24;28.60;62.30
1075;DHT22;526;51.392;12.448;2023-07-13T15:55:50;28.40;62.70
1075;DHT22;526;51.392;12.448;2023-07-13T15:58:17;28.10;63.00
1075;DHT22;526;51.392;12.448;2023-07-13T16:00:45;28.00;63.80
1075;DHT22;526;51.392;12.448;2023-07-13T16:03:11;27.90;63.90
1075;DHT22;526;51.392;12.448;2023-07-13T16:05:37;27.80;63.80
1075;DHT22;526;51.392;12.448;2023-07-13T16:08:04;27.60;63.60
1075;DHT22;526;51.392;12.448;2023-07-13T16:10:36;27.50;64.30
1075;DHT22;526;51.392;12.448;2023-07-13T16:13:10;27.40;64.90
1075;DHT22;526;51.392;12.448;2023-07-13T16:15:39;27.30;64.90
1075;DHT22;526;51.392;12.448;2023-07-13T16:18:13;27.20;64.80
1075;DHT22;526;51.392;12.448;2023-07-13T16:20:49;27.20;64.70
1075;DHT22;526;51.392;12.448;2023-07-13T16:23:16;27.00;64.50
1075;DHT22;526;51.392;12.448;2023-07-13T16:25:45;26.90;65.20
1075;DHT22;526;51.392;12.448;2023-07-13T16:28:11;26.90;65.60
1075;DHT22;526;51.392;12.448;2023-07-13T16:30:37;27.00;65.90
1075;DHT22;526;51.392;12.448;2023-07-13T16:33:05;27.10;65.30
1075;DHT22;526;51.392;12.448;2023-07-13T16:35:35;27.20;64.90
1075;DHT22;526;51.392;12.448;2023-07-13T16:38:04;27.10;65.50
1075;DHT22;526;51.392;12.448;2023-07-13T16:40:35;27.10;65.60
1075;DHT22;526;51.392;12.448;2023-07-13T16:43:01;26.90;65.60
1075;DHT22;526;51.392;12.448;2023-07-13T16:45:31;26.70;66.20
1075;DHT22;526;51.392;12.448;2023-07-13T16:48:00;26.70;66.30
1075;DHT22;526;51.392;12.448;2023-07-13T16:50:33;26.70;66.50
1075;DHT22;526;51.392;12.448;2023-07-13T16:53:00;26.80;66.50
1075;DHT22;526;51.392;12.448;2023-07-13T16:55:31;27.00;66.80
1075;DHT22;526;51.392;12.448;2023-07-13T16:57:58;27.10;66.30
1075;DHT22;526;51.392;12.448;2023-07-13T17:00:28;27.10;66.80
1075;DHT22;526;51.392;12.448;2023-07-13T17:02:57;27.00;66.50
1075;DHT22;526;51.392;12.448;2023-07-13T17:05:33;26.90;66.30
1075;DHT22;526;51.392;12.448;2023-07-13T17:08:02;26.70;66.80
1075;DHT22;526;51.392;12.448;2023-07-13T17:10:38;26.50;66.80
1075;DHT22;526;51.392;12.448;2023-07-13T17:13:08;26.40;67.00
1075;DHT22;526;51.392;12.448;2023-07-13T17:15:34;26.30;67.00
1075;DHT22;526;51.392;12.448;2023-07-13T17:18:02;26.20;66.90
1075;DHT22;526;51.392;12.448;2023-07-13T17:20:37;26.10;67.00
1075;DHT22;526;51.392;12.448;2023-07-13T17:23:19;25.90;67.30
1075;DHT22;526;51.392;12.448;2023-07-13T17:25:46;25.80;67.70
1075;DHT22;526;51.392;12.448;2023-07-13T17:28:13;25.80;67.60
1075;DHT22;526;51.392;12.448;2023-07-13T17:30:41;25.70;68.10
1075;DHT22;526;51.392;12.448;2023-07-13T17:35:56;25.70;68.50
1075;DHT22;526;51.392;12.448;2023-07-13T17:38:30;25.70;68.80
1075;DHT22;526;51.392;12.448;2023-07-13T17:40:56;25.70;68.50
1075;DHT22;526;51.392;12.448;2023-07-13T17:43:22;25.60;68.40
1075;DHT22;526;51.392;12.448;2023-07-13T17:45:48;25.60;68.90
1075;DHT22;526;51.392;12.448;2023-07-13T17:48:14;25.50;69.00
1075;DHT22;526;51.392;12.448;2023-07-13T17:50:39;25.50;69.20
1075;DHT22;526;51.392;12.448;2023-07-13T17:53:20;25.50;69.50
1075;DHT22;526;51.392;12.448;2023-07-13T17:55:46;25.40;69.40
1075;DHT22;526;51.392;12.448;2023-07-13T17:58:16;25.30;69.60
1075;DHT22;526;51.392;12.448;2023-07-13T18:00:43;25.20;70.00
1075;DHT22;526;51.392;12.448;2023-07-13T18:03:15;25.20;70.00
1075;DHT22;526;51.392;12.448;2023-07-13T18:05:44;25.10;70.10
1075;DHT22;526;51.392;12.448;2023-07-13T18:08:23;25.10;70.20
1075;DHT22;526;51.392;12.448;2023-07-13T18:10:49;25.00;70.50
1075;DHT22;526;51.392;12.448;2023-07-13T18:13:16;25.00;70.50
1075;DHT22;526;51.392;12.448;2023-07-13T18:15:43;25.00;70.60
1075;DHT22;526;51.392;12.448;2023-07-13T18:18:10;25.00;70.50
1075;DHT22;526;51.392;12.448;2023-07-13T18:20:38;25.00;70.70
1075;DHT22;526;51.392;12.448;2023-07-13T18:23:21;24.90;70.40
1075;DHT22;526;51.392;12.448;2023-07-13T18:25:48;24.90;70.70
1075;DHT22;526;51.392;12.448;2023-07-13T18:28:15;24.80;71.00
1075;DHT22;526;51.392;12.448;2023-07-13T18:30:42;24.70;71.10
1075;DHT22;526;51.392;12.448;2023-07-13T18:33:31;24.70;71.10
1075;DHT22;526;51.392;12.448;2023-07-13T18:36:02;24.60;71.40
1075;DHT22;526;51.392;12.448;2023-07-13T18:38:29;24.50;71.60
1075;DHT22;526;51.392;12.448;2023-07-13T18:40:57;24.50;71.80
1075;DHT22;526;51.392;12.448;2023-07-13T18:43:24;24.50;72.00
1075;DHT22;526;51.392;12.448;2023-07-13T18:46:00;24.50;72.00
1075;DHT22;526;51.392;12.448;2023-07-13T18:48:31;24.40;72.10
1075;DHT22;526;51.392;12.448;2023-07-13T18:50:58;24.30;73.70
1075;DHT22;526;51.392;12.448;2023-07-13T18:53:25;24.00;75.40
1075;DHT22;526;51.392;12.448;2023-07-13T18:55:53;23.70;76.20
1075;DHT22;526;51.392;12.448;2023-07-13T18:58:19;23.50;77.10
1075;DHT22;526;51.392;12.448;2023-07-13T19:00:49;23.30;77.90
1075;DHT22;526;51.392;12.448;2023-07-13T19:03:18;23.00;78.60
1075;DHT22;526;51.392;12.448;2023-07-13T19:05:48;22.80;79.40
1075;DHT22;526;51.392;12.448;2023-07-13T19:08:19;22.50;80.00
1075;DHT22;526;51.392;12.448;2023-07-13T19:10:47;22.40;80.60
1075;DHT22;526;51.392;12.448;2023-07-13T19:13:18;22.20;81.00
1075;DHT22;526;51.392;12.448;2023-07-13T19:15:44;22.10;81.30
1075;DHT22;526;51.392;12.448;2023-07-13T19:18:15;22.00;81.50
1075;DHT22;526;51.392;12.448;2023-07-13T19:20:41;22.00;81.70
1075;DHT22;526;51.392;12.448;2023-07-13T19:25:59;21.80;82.60
1075;DHT22;526;51.392;12.448;2023-07-13T19:28:36;21.70;82.70
1075;DHT22;526;51.392;12.448;2023-07-13T19:31:03;21.70;83.10
1075;DHT22;526;51.392;12.448;2023-07-13T19:33:29;21.60;83.30
1075;DHT22;526;51.392;12.448;2023-07-13T19:35:55;21.60;83.50
1075;DHT22;526;51.392;12.448;2023-07-13T19:38:24;21.50;83.70
1075;DHT22;526;51.392;12.448;2023-07-13T19:40:51;21.50;83.80
1075;DHT22;526;51.392;12.448;2023-07-13T19:43:17;21.40;84.10
1075;DHT22;526;51.392;12.448;2023-07-13T19:45:43;21.40;84.30
1075;DHT22;526;51.392;12.448;2023-07-13T19:48:08;21.40;84.60
1075;DHT22;526;51.392;12.448;2023-07-13T19:50:37;21.40;84.50
1075;DHT22;526;51.392;12.448;2023-07-13T19:53:04;21.40;84.40
1075;DHT22;526;51.392;12.448;2023-07-13T19:55:30;21.40;84.50
1075;DHT22;526;51.392;12.448;2023-07-13T19:57:56;21.30;84.70
1075;DHT22;526;51.392;12.448;2023-07-13T20:00:26;21.30;84.80
1075;DHT22;526;51.392;12.448;2023-07-13T20:02:53;21.20;85.00
1075;DHT22;526;51.392;12.448;2023-07-13T20:05:21;21.20;85.10
1075;DHT22;526;51.392;12.448;2023-07-13T20:07:58;21.10;85.20
1075;DHT22;526;51.392;12.448;2023-07-13T20:10:25;21.10;85.30
1075;DHT22;526;51.392;12.448;2023-07-13T20:12:53;21.00;85.60
1075;DHT22;526;51.392;12.448;2023-07-13T20:15:24;21.00;85.90
1075;DHT22;526;51.392;12.448;2023-07-13T20:17:54;21.00;86.00
1075;DHT22;526;51.392;12.448;2023-07-13T20:20:30;20.90;86.10
1075;DHT22;526;51.392;12.448;2023-07-13T20:22:56;21.00;86.30
1075;DHT22;526;51.392;12.448;2023-07-13T20:27:51;20.90;85.80
1075;DHT22;526;51.392;12.448;2023-07-13T20:30:19;20.90;85.90
1075;DHT22;526;51.392;12.448;2023-07-13T20:32:44;20.90;85.40
1075;DHT22;526;51.392;12.448;2023-07-13T20:35:34;20.80;85.60
1075;DHT22;526;51.392;12.448;2023-07-13T20:38:02;20.70;85.60
1075;DHT22;526;51.392;12.448;2023-07-13T20:40:31;20.70;85.60
1075;DHT22;526;51.392;12.448;2023-07-13T20:42:58;20.70;85.80
1075;DHT22;526;51.392;12.448;2023-07-13T20:45:26;20.60;85.90
1075;DHT22;526;51.392;12.448;2023-07-13T20:47:54;20.60;85.90
1075;DHT22;526;51.392;12.448;2023-07-13T20:50:26;20.60;86.10
1075;DHT22;526;51.392;12.448;2023-07-13T20:52:57;20.50;86.10
1075;DHT22;526;51.392;12.448;2023-07-13T20:55:29;20.50;86.40
1075;DHT22;526;51.392;12.448;2023-07-13T20:57:56;20.50;86.30
1075;DHT22;526;51.392;12.448;2023-07-13T21:00:24;20.50;86.00